createdAt,value
2022-09-18T00:00:36.704Z,18.76
2022-09-18T00:01:36.821Z,18.76
2022-09-18T00:02:36.842Z,18.80
2022-09-18T00:03:36.702Z,18.80
2022-09-18T00:04:36.703Z,18.76
2022-09-18T00:05:36.702Z,18.76
2022-09-18T00:06:36.687Z,18.76
2022-09-18T00:07:36.680Z,18.76
2022-09-18T00:08:36.690Z,18.78
2022-09-18T00:09:36.688Z,18.80
2022-09-18T00:10:36.681Z,18.75
2022-09-18T00:11:36.799Z,18.82
2022-09-18T00:12:36.677Z,18.78
2022-09-18T00:13:36.681Z,18.78
2022-09-18T00:14:36.677Z,18.76
2022-09-18T00:15:36.670Z,18.75
2022-09-18T00:16:36.734Z,18.80
2022-09-18T00:17:36.659Z,18.75
2022-09-18T00:18:36.669Z,18.80
2022-09-18T00:19:36.654Z,18.76
2022-09-18T00:20:36.653Z,18.81
2022-09-18T00:21:36.657Z,18.75
2022-09-18T00:22:36.657Z,18.82
2022-09-18T00:23:36.646Z,18.80
2022-09-18T00:24:36.645Z,18.78
2022-09-18T00:25:36.644Z,18.87
2022-09-18T00:26:36.638Z,18.82
2022-09-18T00:27:36.757Z,18.81
2022-09-18T00:28:36.641Z,18.75
2022-09-18T00:29:36.639Z,18.76
2022-09-18T00:30:36.632Z,18.78
2022-09-18T00:31:36.703Z,18.80
2022-09-18T00:32:36.630Z,18.81
2022-09-18T00:33:36.633Z,18.81
2022-09-18T00:34:36.630Z,18.75
2022-09-18T00:35:36.624Z,18.84
2022-09-18T00:36:36.627Z,18.80
2022-09-18T00:37:36.641Z,18.75
2022-09-18T00:38:36.621Z,18.76
2022-09-18T00:39:36.608Z,18.80
2022-09-18T00:40:36.650Z,18.82
2022-09-18T00:41:36.611Z,18.75
2022-09-18T00:42:36.602Z,18.76
2022-09-18T00:43:36.727Z,18.75
2022-09-18T00:44:36.607Z,18.80
2022-09-18T00:45:36.594Z,18.76
2022-09-18T00:46:36.682Z,18.84
2022-09-18T00:47:36.688Z,18.81
2022-09-18T00:48:36.615Z,18.76
2022-09-18T00:49:36.585Z,18.80
2022-09-18T00:50:36.594Z,18.76
2022-09-18T00:51:36.590Z,18.76
2022-09-18T00:52:36.589Z,18.75
2022-09-18T00:53:36.584Z,18.76
2022-09-18T00:54:36.579Z,18.81
2022-09-18T00:55:36.574Z,18.75
2022-09-18T00:56:36.578Z,18.80
2022-09-18T00:57:36.571Z,18.80
2022-09-18T00:58:36.567Z,18.81
2022-09-18T00:59:36.681Z,18.78
2022-09-18T01:00:36.645Z,18.81
2022-09-18T01:01:36.610Z,18.81
2022-09-18T01:02:36.554Z,18.75
2022-09-18T01:03:36.559Z,18.75
2022-09-18T01:04:36.559Z,18.82
2022-09-18T01:05:36.554Z,18.75
2022-09-18T01:06:36.555Z,18.78
2022-09-18T01:07:36.548Z,18.75
2022-09-18T01:08:39.531Z,18.75
2022-09-18T01:09:36.539Z,18.76
2022-09-18T01:10:36.536Z,18.76
2022-09-18T01:11:36.550Z,18.76
2022-09-18T01:12:36.536Z,18.78
2022-09-18T01:13:36.527Z,18.87
2022-09-18T01:14:36.535Z,18.80
2022-09-18T01:15:36.545Z,18.78
2022-09-18T01:16:36.565Z,18.76
2022-09-18T01:17:36.521Z,18.80
2022-09-18T01:18:36.526Z,18.75
2022-09-18T01:19:36.526Z,18.75
2022-09-18T01:20:36.524Z,18.80
2022-09-18T01:21:36.516Z,18.76
2022-09-18T01:22:36.508Z,18.76
2022-09-18T01:23:36.544Z,18.76
2022-09-18T01:24:36.511Z,18.82
2022-09-18T01:25:36.501Z,18.76
2022-09-18T01:26:36.507Z,18.87
2022-09-18T01:27:36.505Z,18.80
2022-09-18T01:28:36.500Z,18.87
2022-09-18T01:29:36.492Z,18.81
2022-09-18T01:30:36.499Z,18.76
2022-09-18T01:31:36.640Z,18.76
2022-09-18T01:32:36.498Z,18.80
2022-09-18T01:33:36.480Z,18.80
2022-09-18T01:34:36.494Z,18.73
2022-09-18T01:35:41.557Z,18.84
2022-09-18T01:36:36.479Z,18.76
2022-09-18T01:37:36.477Z,18.78
2022-09-18T01:38:36.489Z,18.76
2022-09-18T01:39:36.473Z,18.78
2022-09-18T01:40:36.558Z,18.75
2022-09-18T01:41:36.466Z,18.84
2022-09-18T01:42:36.472Z,18.76
2022-09-18T01:43:36.465Z,18.80
2022-09-18T01:44:36.463Z,18.80
2022-09-18T01:45:36.463Z,18.73
2022-09-18T01:46:36.494Z,18.78
2022-09-18T01:47:36.572Z,18.76
2022-09-18T01:48:36.451Z,18.78
2022-09-18T01:49:36.449Z,18.82
2022-09-18T01:50:36.446Z,18.78
2022-09-18T01:51:36.449Z,18.75
2022-09-18T01:52:36.447Z,18.80
2022-09-18T01:53:36.447Z,18.76
2022-09-18T01:54:36.453Z,18.87
2022-09-18T01:55:36.460Z,18.80
2022-09-18T01:56:36.431Z,18.75
2022-09-18T01:57:36.423Z,18.76
2022-09-18T01:58:36.437Z,18.80
2022-09-18T01:59:36.426Z,18.75
2022-09-18T02:00:36.454Z,18.73
2022-09-18T02:01:36.582Z,18.78
2022-09-18T02:02:36.624Z,18.82
2022-09-18T02:03:36.530Z,18.78
2022-09-18T02:04:36.412Z,18.80
2022-09-18T02:05:36.410Z,18.81
2022-09-18T02:06:36.417Z,18.78
2022-09-18T02:07:36.411Z,18.81
2022-09-18T02:08:36.410Z,18.80
2022-09-18T02:09:36.403Z,18.80
2022-09-18T02:10:36.402Z,18.80
2022-09-18T02:11:36.400Z,18.76
2022-09-18T02:12:36.395Z,18.73
2022-09-18T02:13:36.396Z,18.76
2022-09-18T02:14:36.393Z,18.73
2022-09-18T02:15:36.388Z,18.82
2022-09-18T02:16:36.493Z,18.84
2022-09-18T02:17:36.378Z,18.75
2022-09-18T02:18:36.378Z,18.78
2022-09-18T02:19:36.496Z,18.80
2022-09-18T02:20:36.373Z,18.80
2022-09-18T02:21:36.426Z,18.76
2022-09-18T02:22:36.367Z,18.78
2022-09-18T02:23:36.363Z,18.76
2022-09-18T02:24:36.368Z,18.80
2022-09-18T02:25:36.360Z,18.82
2022-09-18T02:26:36.361Z,18.82
2022-09-18T02:27:36.360Z,18.80
2022-09-18T02:28:36.370Z,18.76
2022-09-18T02:29:36.351Z,18.75
2022-09-18T02:30:36.348Z,18.76
2022-09-18T02:31:36.477Z,18.76
2022-09-18T02:32:36.341Z,18.82
2022-09-18T02:33:36.358Z,18.78
2022-09-18T02:34:36.344Z,18.81
2022-09-18T02:35:36.464Z,18.78
2022-09-18T02:36:36.331Z,18.82
2022-09-18T02:37:36.345Z,18.76
2022-09-18T02:38:36.332Z,18.82
2022-09-18T02:39:36.331Z,18.76
2022-09-18T02:40:36.404Z,18.78
2022-09-18T02:41:36.323Z,18.82
2022-09-18T02:42:36.318Z,18.76
2022-09-18T02:43:36.322Z,18.75
2022-09-18T02:44:36.324Z,18.84
2022-09-18T02:45:36.317Z,18.80
2022-09-18T02:46:36.390Z,18.76
2022-09-18T02:47:36.311Z,18.84
2022-09-18T02:48:36.354Z,18.82
2022-09-18T02:49:36.307Z,18.75
2022-09-18T02:50:36.307Z,18.80
2022-09-18T02:51:36.416Z,18.76
2022-09-18T02:52:36.305Z,18.81
2022-09-18T02:53:36.300Z,18.78
2022-09-18T02:54:36.288Z,18.73
2022-09-18T02:55:36.297Z,18.82
2022-09-18T02:56:36.306Z,18.82
2022-09-18T02:57:36.292Z,18.78
2022-09-18T02:58:36.284Z,18.80
2022-09-18T02:59:36.279Z,18.80
2022-09-18T03:00:36.273Z,18.80
2022-09-18T03:01:36.495Z,18.80
2022-09-18T03:02:36.303Z,18.82
2022-09-18T03:03:36.279Z,18.80
2022-09-18T03:04:36.274Z,18.80
2022-09-18T03:05:36.271Z,18.81
2022-09-18T03:06:36.266Z,18.84
2022-09-18T03:07:36.372Z,18.75
2022-09-18T03:08:36.261Z,18.80
2022-09-18T03:09:36.258Z,18.80
2022-09-18T03:10:36.262Z,18.73
2022-09-18T03:11:36.256Z,18.80
2022-09-18T03:12:36.254Z,18.82
2022-09-18T03:13:36.255Z,18.76
2022-09-18T03:14:36.244Z,18.80
2022-09-18T03:15:36.244Z,18.82
2022-09-18T03:16:36.372Z,18.80
2022-09-18T03:17:36.246Z,18.80
2022-09-18T03:18:36.232Z,18.80
2022-09-18T03:19:36.235Z,18.81
2022-09-18T03:20:36.234Z,18.73
2022-09-18T03:21:36.229Z,18.80
2022-09-18T03:22:36.230Z,18.76
2022-09-18T03:23:36.340Z,18.75
2022-09-18T03:24:36.221Z,18.75
2022-09-18T03:25:36.223Z,18.75
2022-09-18T03:26:36.215Z,18.76
2022-09-18T03:27:36.218Z,18.73
2022-09-18T03:28:36.220Z,18.75
2022-09-18T03:29:36.208Z,18.80
2022-09-18T03:30:36.216Z,18.78
2022-09-18T03:31:36.307Z,18.80
2022-09-18T03:32:36.197Z,18.80
2022-09-18T03:33:36.202Z,18.78
2022-09-18T03:34:36.208Z,18.73
2022-09-18T03:35:36.196Z,18.82
2022-09-18T03:36:36.192Z,18.87
2022-09-18T03:37:36.196Z,18.81
2022-09-18T03:38:36.192Z,18.80
2022-09-18T03:39:36.296Z,18.80
2022-09-18T03:40:36.227Z,18.78
2022-09-18T03:41:36.178Z,18.76
2022-09-18T03:42:36.181Z,18.80
2022-09-18T03:43:36.174Z,18.80
2022-09-18T03:44:36.177Z,18.82
2022-09-18T03:45:36.167Z,18.80
2022-09-18T03:46:36.253Z,18.75
2022-09-18T03:47:36.745Z,18.75
2022-09-18T03:48:36.169Z,18.76
2022-09-18T03:49:36.167Z,18.75
2022-09-18T03:50:36.167Z,18.76
2022-09-18T03:51:36.155Z,18.76
2022-09-18T03:52:36.160Z,18.76
2022-09-18T03:53:36.148Z,18.82
2022-09-18T03:54:36.163Z,18.78
2022-09-18T03:55:36.264Z,18.76
2022-09-18T03:56:36.151Z,18.80
2022-09-18T03:57:36.146Z,18.78
2022-09-18T03:58:36.146Z,18.78
2022-09-18T03:59:36.149Z,18.75
2022-09-18T04:00:36.147Z,18.80
2022-09-18T04:01:36.228Z,18.81
2022-09-18T04:02:36.147Z,18.76
2022-09-18T04:03:36.130Z,18.76
2022-09-18T04:04:36.129Z,18.80
2022-09-18T04:05:36.128Z,18.78
2022-09-18T04:06:36.130Z,18.76
2022-09-18T04:07:36.117Z,18.73
2022-09-18T04:08:36.112Z,18.75
2022-09-18T04:09:36.120Z,18.82
2022-09-18T04:10:36.117Z,18.78
2022-09-18T04:11:36.232Z,18.78
2022-09-18T04:12:36.124Z,18.78
2022-09-18T04:13:36.105Z,18.78
2022-09-18T04:14:36.103Z,18.76
2022-09-18T04:15:36.102Z,18.78
2022-09-18T04:16:36.159Z,18.82
2022-09-18T04:17:36.098Z,18.81
2022-09-18T04:18:36.095Z,18.80
2022-09-18T04:19:36.092Z,18.78
2022-09-18T04:20:36.092Z,18.73
2022-09-18T04:21:36.088Z,18.82
2022-09-18T04:22:36.095Z,18.72
2022-09-18T04:23:36.079Z,18.78
2022-09-18T04:24:36.071Z,18.81
2022-09-18T04:25:36.070Z,18.82
2022-09-18T04:26:36.075Z,18.81
2022-09-18T04:27:36.191Z,18.78
2022-09-18T04:28:36.068Z,18.80
2022-09-18T04:29:36.127Z,18.82
2022-09-18T04:30:36.065Z,18.76
2022-09-18T04:31:36.167Z,18.80
2022-09-18T04:32:36.066Z,18.81
2022-09-18T04:33:36.059Z,18.70
2022-09-18T04:34:36.050Z,18.76
2022-09-18T04:35:36.046Z,18.78
2022-09-18T04:36:36.049Z,18.78
2022-09-18T04:37:36.047Z,18.80
2022-09-18T04:38:36.042Z,18.73
2022-09-18T04:39:36.051Z,18.70
2022-09-18T04:40:36.140Z,18.70
2022-09-18T04:41:36.041Z,18.70
2022-09-18T04:42:36.040Z,18.76
2022-09-18T04:43:36.153Z,18.78
2022-09-18T04:44:36.031Z,18.72
2022-09-18T04:45:36.024Z,18.80
2022-09-18T04:46:36.121Z,18.81
2022-09-18T04:47:36.015Z,18.78
2022-09-18T04:48:36.028Z,18.69
2022-09-18T04:49:36.013Z,18.78
2022-09-18T04:50:36.029Z,18.82
2022-09-18T04:51:36.010Z,18.70
2022-09-18T04:52:36.013Z,18.67
2022-09-18T04:53:36.007Z,18.81
2022-09-18T04:54:36.001Z,18.78
2022-09-18T04:55:36.025Z,18.78
2022-09-18T04:56:35.993Z,18.82
2022-09-18T04:57:36.001Z,18.78
2022-09-18T04:58:35.988Z,18.70
2022-09-18T04:59:36.116Z,18.82
2022-09-18T05:00:36.121Z,18.69
2022-09-18T05:01:36.049Z,18.67
2022-09-18T05:02:35.988Z,18.81
2022-09-18T05:03:35.987Z,18.73
2022-09-18T05:04:35.997Z,18.81
2022-09-18T05:05:35.991Z,18.73
2022-09-18T05:06:35.971Z,18.69
2022-09-18T05:07:35.966Z,18.67
2022-09-18T05:08:35.972Z,18.70
2022-09-18T05:09:36.060Z,18.70
2022-09-18T05:10:35.972Z,18.78
2022-09-18T05:11:35.982Z,18.70
2022-09-18T05:12:35.964Z,18.66
2022-09-18T05:13:35.953Z,18.75
2022-09-18T05:14:35.961Z,18.73
2022-09-18T05:15:36.065Z,18.76
2022-09-18T05:16:36.101Z,18.69
2022-09-18T05:17:35.952Z,18.78
2022-09-18T05:18:35.946Z,18.72
2022-09-18T05:19:35.945Z,18.72
2022-09-18T05:20:35.960Z,18.81
2022-09-18T05:21:35.942Z,18.81
2022-09-18T05:22:35.942Z,18.73
2022-09-18T05:23:35.942Z,18.78
2022-09-18T05:24:35.939Z,18.75
2022-09-18T05:25:35.946Z,18.66
2022-09-18T05:26:35.932Z,18.75
2022-09-18T05:27:35.931Z,18.80
2022-09-18T05:28:36.023Z,18.69
2022-09-18T05:29:35.928Z,18.72
2022-09-18T05:30:35.914Z,18.73
2022-09-18T05:31:36.092Z,18.72
2022-09-18T05:32:35.919Z,18.70
2022-09-18T05:33:35.915Z,18.70
2022-09-18T05:34:35.912Z,18.67
2022-09-18T05:35:35.910Z,18.73
2022-09-18T05:36:35.908Z,18.76
2022-09-18T05:37:35.898Z,18.67
2022-09-18T05:38:35.900Z,18.70
2022-09-18T05:39:35.897Z,18.73
2022-09-18T05:40:35.935Z,18.70
2022-09-18T05:41:35.887Z,18.72
2022-09-18T05:42:35.888Z,18.67
2022-09-18T05:43:35.886Z,18.72
2022-09-18T05:44:35.890Z,18.78
2022-09-18T05:45:35.888Z,18.80
2022-09-18T05:46:35.910Z,18.72
2022-09-18T05:47:35.990Z,18.72
2022-09-18T05:48:35.868Z,18.78
2022-09-18T05:49:35.876Z,18.78
2022-09-18T05:50:35.869Z,18.76
2022-09-18T05:51:35.867Z,18.73
2022-09-18T05:52:35.865Z,18.75
2022-09-18T05:53:35.866Z,18.81
2022-09-18T05:54:35.857Z,18.72
2022-09-18T05:55:35.849Z,18.78
2022-09-18T05:56:35.858Z,18.72
2022-09-18T05:57:35.850Z,18.69
2022-09-18T05:58:35.850Z,18.67
2022-09-18T05:59:35.861Z,18.73
2022-09-18T06:00:35.846Z,18.76
2022-09-18T06:01:35.889Z,18.80
2022-09-18T06:02:35.936Z,18.80
2022-09-18T06:03:35.961Z,18.81
2022-09-18T06:04:35.834Z,18.67
2022-09-18T06:05:35.839Z,18.75
2022-09-18T06:06:35.832Z,18.82
2022-09-18T06:07:35.832Z,18.81
2022-09-18T06:08:35.830Z,18.82
2022-09-18T06:09:35.829Z,18.78
2022-09-18T06:10:35.819Z,18.82
2022-09-18T06:11:35.822Z,18.73
2022-09-18T06:12:35.816Z,18.69
2022-09-18T06:13:35.814Z,18.78
2022-09-18T06:14:35.819Z,18.81
2022-09-18T06:15:35.802Z,18.73
2022-09-18T06:16:40.028Z,18.78
2022-09-18T06:17:35.812Z,18.72
2022-09-18T06:18:35.803Z,18.78
2022-09-18T06:19:35.904Z,18.76
2022-09-18T06:20:35.789Z,18.82
2022-09-18T06:21:35.786Z,18.72
2022-09-18T06:22:35.789Z,18.78
2022-09-18T06:23:35.795Z,18.66
2022-09-18T06:24:35.785Z,18.73
2022-09-18T06:25:35.788Z,18.70
2022-09-18T06:26:35.775Z,18.78
2022-09-18T06:27:35.773Z,18.70
2022-09-18T06:28:35.775Z,18.78
2022-09-18T06:29:35.774Z,18.81
2022-09-18T06:30:35.774Z,18.82
2022-09-18T06:31:35.872Z,18.72
2022-09-18T06:32:35.760Z,18.80
2022-09-18T06:33:35.773Z,18.75
2022-09-18T06:34:38.749Z,18.81
2022-09-18T06:35:35.870Z,18.82
2022-09-18T06:36:35.773Z,18.75
2022-09-18T06:37:35.757Z,18.73
2022-09-18T06:38:35.751Z,18.81
2022-09-18T06:39:35.753Z,18.81
2022-09-18T06:40:35.868Z,18.78
2022-09-18T06:41:35.745Z,18.78
2022-09-18T06:42:35.744Z,18.80
2022-09-18T06:43:35.732Z,18.78
2022-09-18T06:44:35.743Z,18.72
2022-09-18T06:45:35.729Z,18.78
2022-09-18T06:46:35.786Z,18.69
2022-09-18T06:47:35.739Z,18.78
2022-09-18T06:48:35.729Z,18.78
2022-09-18T06:49:35.727Z,18.82
2022-09-18T06:50:35.728Z,18.78
2022-09-18T06:51:35.835Z,18.75
2022-09-18T06:52:35.718Z,18.72
2022-09-18T06:53:35.720Z,18.82
2022-09-18T06:54:35.709Z,18.75
2022-09-18T06:55:35.713Z,18.75
2022-09-18T06:56:35.709Z,18.80
2022-09-18T06:57:35.712Z,18.78
2022-09-18T06:58:35.697Z,18.73
2022-09-18T06:59:35.714Z,18.80
2022-09-18T07:00:35.793Z,18.80
2022-09-18T07:01:35.826Z,18.80
2022-09-18T07:02:35.753Z,18.78
2022-09-18T07:03:35.684Z,18.82
2022-09-18T07:04:35.682Z,18.80
2022-09-18T07:05:35.686Z,18.78
2022-09-18T07:06:35.685Z,18.78
2022-09-18T07:07:35.799Z,18.82
2022-09-18T07:08:35.671Z,18.78
2022-09-18T07:09:35.673Z,18.81
2022-09-18T07:10:35.670Z,18.75
2022-09-18T07:11:35.676Z,18.76
2022-09-18T07:12:35.672Z,18.80
2022-09-18T07:13:35.668Z,18.76
2022-09-18T07:14:35.667Z,18.75
2022-09-18T07:15:35.666Z,18.75
2022-09-18T07:16:35.756Z,18.87
2022-09-18T07:17:35.655Z,18.82
2022-09-18T07:18:35.649Z,18.76
2022-09-18T07:19:35.651Z,18.82
2022-09-18T07:20:35.649Z,18.78
2022-09-18T07:21:35.647Z,18.78
2022-09-18T07:22:35.658Z,18.78
2022-09-18T07:23:35.758Z,18.81
2022-09-18T07:24:35.641Z,18.76
2022-09-18T07:25:35.637Z,18.78
2022-09-18T07:26:35.631Z,18.81
2022-09-18T07:27:35.625Z,18.84
2022-09-18T07:28:35.650Z,18.76
2022-09-18T07:29:35.629Z,18.85
2022-09-18T07:30:35.637Z,18.78
2022-09-18T07:31:35.685Z,18.82
2022-09-18T07:32:35.619Z,18.81
2022-09-18T07:33:35.614Z,18.78
2022-09-18T07:34:35.622Z,18.81
2022-09-18T07:35:35.616Z,18.87
2022-09-18T07:36:35.613Z,18.76
2022-09-18T07:37:35.606Z,18.85
2022-09-18T07:38:35.613Z,18.82
2022-09-18T07:39:35.720Z,18.81
2022-09-18T07:40:35.644Z,18.84
2022-09-18T07:41:35.604Z,18.88
2022-09-18T07:42:35.606Z,18.84
2022-09-18T07:43:35.593Z,18.82
2022-09-18T07:44:35.601Z,18.84
2022-09-18T07:45:35.594Z,18.82
2022-09-18T07:46:35.646Z,18.84
2022-09-18T07:47:35.590Z,18.85
2022-09-18T07:48:35.583Z,18.88
2022-09-18T07:49:35.574Z,18.88
2022-09-18T07:50:35.575Z,18.91
2022-09-18T07:51:35.580Z,18.85
2022-09-18T07:52:35.582Z,18.84
2022-09-18T07:53:35.573Z,18.80
2022-09-18T07:54:35.568Z,18.90
2022-09-18T07:55:35.685Z,18.88
2022-09-18T07:56:35.566Z,18.84
2022-09-18T07:57:35.555Z,18.81
2022-09-18T07:58:35.565Z,18.91
2022-09-18T07:59:35.550Z,18.84
2022-09-18T08:00:35.562Z,18.92
2022-09-18T08:01:35.720Z,18.90
2022-09-18T08:02:35.665Z,18.84
2022-09-18T08:03:40.495Z,18.99
2022-09-18T08:04:35.552Z,18.91
2022-09-18T08:05:35.547Z,18.95
2022-09-18T08:06:35.549Z,18.99
2022-09-18T08:07:35.538Z,18.99
2022-09-18T08:08:35.533Z,18.95
2022-09-18T08:09:35.531Z,18.98
2022-09-18T08:10:35.534Z,18.99
2022-09-18T08:11:35.652Z,19.00
2022-09-18T08:12:35.528Z,19.04
2022-09-18T08:13:35.532Z,19.07
2022-09-18T08:14:35.535Z,19.08
2022-09-18T08:15:35.526Z,19.07
2022-09-18T08:16:35.618Z,19.10
2022-09-18T08:17:35.519Z,19.10
2022-09-18T08:18:35.521Z,19.13
2022-09-18T08:19:35.516Z,19.13
2022-09-18T08:20:35.519Z,19.13
2022-09-18T08:21:35.506Z,19.16
2022-09-18T08:22:35.505Z,19.22
2022-09-18T08:23:35.501Z,19.21
2022-09-18T08:24:35.518Z,19.19
2022-09-18T08:25:35.513Z,19.22
2022-09-18T08:26:35.499Z,19.25
2022-09-18T08:27:35.618Z,19.23
2022-09-18T08:28:35.504Z,19.29
2022-09-18T08:29:35.501Z,19.22
2022-09-18T08:30:35.490Z,19.29
2022-09-18T08:31:35.591Z,19.25
2022-09-18T08:32:35.498Z,19.21
2022-09-18T08:33:35.491Z,19.08
2022-09-18T08:34:35.481Z,19.02
2022-09-18T08:35:35.499Z,18.95
2022-09-18T08:36:35.485Z,18.75
2022-09-18T08:37:35.484Z,18.73
2022-09-18T08:38:35.482Z,18.57
2022-09-18T08:39:35.478Z,18.44
2022-09-18T08:40:35.550Z,18.39
2022-09-18T08:41:35.474Z,18.36
2022-09-18T08:42:35.471Z,18.27
2022-09-18T08:43:35.577Z,18.14
2022-09-18T08:44:35.461Z,18.05
2022-09-18T08:45:35.456Z,17.96
2022-09-18T08:46:35.569Z,18.02
2022-09-18T08:47:35.443Z,17.90
2022-09-18T08:48:35.452Z,17.82
2022-09-18T08:49:35.434Z,17.74
2022-09-18T08:50:38.532Z,17.70
2022-09-18T08:51:35.433Z,17.66
2022-09-18T08:52:35.543Z,17.56
2022-09-18T08:53:35.420Z,17.52
2022-09-18T08:54:35.419Z,17.54
2022-09-18T08:55:35.409Z,17.49
2022-09-18T08:56:35.407Z,17.33
2022-09-18T08:57:35.413Z,17.30
2022-09-18T08:58:35.404Z,17.36
2022-09-18T08:59:35.509Z,17.21
2022-09-18T09:00:35.458Z,17.21
2022-09-18T09:01:35.384Z,17.16
2022-09-18T09:02:35.464Z,17.16
2022-09-18T09:03:35.382Z,17.07
2022-09-18T09:04:35.367Z,17.15
2022-09-18T09:05:35.384Z,17.07
2022-09-18T09:06:35.379Z,16.98
2022-09-18T09:07:35.357Z,17.08
2022-09-18T09:08:35.983Z,16.93
2022-09-18T09:09:35.349Z,17.00
2022-09-18T09:10:35.345Z,16.93
2022-09-18T09:11:35.341Z,16.97
2022-09-18T09:12:35.336Z,16.89
2022-09-18T09:13:35.321Z,16.98
2022-09-18T09:14:56.192Z,16.86
2022-09-18T09:15:35.440Z,17.04
2022-09-18T09:16:35.363Z,17.06
2022-09-18T09:17:35.312Z,17.14
2022-09-18T09:18:35.292Z,17.12
2022-09-18T09:19:35.300Z,17.11
2022-09-18T09:20:35.280Z,17.12
2022-09-18T09:21:35.282Z,17.18
2022-09-18T09:22:35.284Z,17.19
2022-09-18T09:23:35.316Z,17.31
2022-09-18T09:24:35.310Z,17.33
2022-09-18T09:25:35.271Z,17.25
2022-09-18T09:26:35.261Z,17.36
2022-09-18T09:27:35.253Z,17.48
2022-09-18T09:28:35.289Z,17.44
2022-09-18T09:29:35.240Z,17.46
2022-09-18T09:30:35.243Z,17.44
2022-09-18T09:31:35.438Z,17.51
2022-09-18T09:32:35.246Z,17.55
2022-09-18T09:33:35.226Z,17.46
2022-09-18T09:34:35.219Z,17.48
2022-09-18T09:35:35.219Z,17.56
2022-09-18T09:36:35.216Z,17.51
2022-09-18T09:37:35.205Z,17.54
2022-09-18T09:38:35.196Z,17.62
2022-09-18T09:39:35.208Z,17.54
2022-09-18T09:40:35.294Z,17.49
2022-09-18T09:41:35.196Z,17.58
2022-09-18T09:42:35.215Z,17.54
2022-09-18T09:43:35.194Z,17.55
2022-09-18T09:44:35.182Z,17.56
2022-09-18T09:45:35.173Z,17.54
2022-09-18T09:46:35.227Z,17.46
2022-09-18T09:47:35.271Z,17.54
2022-09-18T09:48:35.159Z,17.59
2022-09-18T09:49:35.160Z,17.55
2022-09-18T09:50:35.172Z,17.59
2022-09-18T09:51:35.142Z,17.52
2022-09-18T09:52:35.139Z,17.46
2022-09-18T09:53:35.140Z,17.56
2022-09-18T09:54:35.206Z,17.54
2022-09-18T09:55:35.170Z,17.62
2022-09-18T09:56:35.137Z,17.58
2022-09-18T09:57:35.122Z,17.55
2022-09-18T09:58:35.121Z,17.56
2022-09-18T09:59:35.118Z,17.56
2022-09-18T10:00:35.161Z,17.56
2022-09-18T10:01:35.136Z,17.56
2022-09-18T10:02:35.124Z,17.59
2022-09-18T10:03:35.239Z,17.55
2022-09-18T10:04:35.105Z,17.56
2022-09-18T10:05:35.099Z,17.54
2022-09-18T10:06:35.095Z,17.59
2022-09-18T10:07:35.084Z,17.62
2022-09-18T10:08:35.086Z,17.55
2022-09-18T10:09:35.080Z,17.62
2022-09-18T10:10:35.069Z,17.63
2022-09-18T10:11:35.060Z,17.56
2022-09-18T10:12:35.063Z,17.59
2022-09-18T10:13:35.052Z,17.59
2022-09-18T10:14:35.069Z,17.56
2022-09-18T10:15:35.055Z,17.59
2022-09-18T10:16:35.101Z,17.49
2022-09-18T10:17:35.063Z,17.51
2022-09-18T10:18:35.034Z,17.62
2022-09-18T10:19:35.143Z,17.52
2022-09-18T10:20:35.037Z,17.58
2022-09-18T10:21:35.022Z,17.59
2022-09-18T10:22:35.026Z,17.59
2022-09-18T10:23:35.014Z,17.58
2022-09-18T10:24:35.013Z,17.54
2022-09-18T10:25:35.014Z,17.48
2022-09-18T10:26:35.030Z,17.49
2022-09-18T10:27:35.000Z,17.52
2022-09-18T10:28:35.000Z,17.48
2022-09-18T10:29:36.051Z,17.49
2022-09-18T10:30:34.993Z,17.58
2022-09-18T10:31:35.023Z,17.52
2022-09-18T10:32:34.984Z,17.59
2022-09-18T10:33:34.989Z,17.64
2022-09-18T10:34:34.981Z,17.66
2022-09-18T10:35:35.087Z,17.71
2022-09-18T10:36:34.970Z,17.74
2022-09-18T10:37:34.961Z,17.71
2022-09-18T10:38:34.961Z,17.68
2022-09-18T10:39:34.962Z,17.75
2022-09-18T10:40:35.002Z,17.75
2022-09-18T10:41:35.006Z,17.78
2022-09-18T10:42:35.001Z,17.87
2022-09-18T10:43:35.039Z,17.79
2022-09-18T10:44:34.942Z,17.86
2022-09-18T10:45:34.960Z,17.86
2022-09-18T10:46:34.967Z,17.86
2022-09-18T10:47:34.935Z,17.95
2022-09-18T10:48:34.931Z,17.90
2022-09-18T10:49:34.922Z,17.95
2022-09-18T10:50:34.936Z,17.92
2022-09-18T10:51:35.054Z,18.05
2022-09-18T10:52:34.948Z,17.96
2022-09-18T10:53:34.906Z,18.02
2022-09-18T10:54:34.915Z,18.02
2022-09-18T10:55:34.900Z,18.03
2022-09-18T10:56:34.900Z,17.95
2022-09-18T10:57:34.891Z,17.93
2022-09-18T10:58:34.886Z,18.05
2022-09-18T10:59:34.888Z,17.93
2022-09-18T11:00:34.921Z,18.05
2022-09-18T11:01:34.947Z,18.00
2022-09-18T11:02:34.948Z,18.00
2022-09-18T11:03:34.877Z,18.11
2022-09-18T11:04:34.883Z,18.10
2022-09-18T11:05:34.874Z,18.18
2022-09-18T11:06:34.876Z,18.15
2022-09-18T11:07:34.981Z,18.23
2022-09-18T11:08:34.862Z,18.17
2022-09-18T11:09:34.860Z,18.07
2022-09-18T11:10:34.863Z,18.08
2022-09-18T11:11:34.852Z,18.20
2022-09-18T11:12:34.853Z,18.07
2022-09-18T11:13:34.847Z,18.20
2022-09-18T11:14:34.843Z,18.18
2022-09-18T11:15:34.845Z,18.21
2022-09-18T11:16:34.976Z,18.25
2022-09-18T11:17:34.838Z,18.23
2022-09-18T11:18:34.832Z,18.29
2022-09-18T11:19:34.836Z,18.35
2022-09-18T11:20:34.832Z,18.25
2022-09-18T11:21:34.825Z,18.32
2022-09-18T11:22:34.832Z,18.25
2022-09-18T11:23:34.937Z,18.26
2022-09-18T11:24:34.827Z,18.30
2022-09-18T11:25:34.817Z,18.32
2022-09-18T11:26:34.817Z,18.33
2022-09-18T11:27:34.822Z,18.29
2022-09-18T11:28:34.811Z,18.36
2022-09-18T11:29:34.809Z,18.36
2022-09-18T11:30:34.799Z,18.35
2022-09-18T11:31:34.871Z,18.39
2022-09-18T11:32:34.794Z,18.26
2022-09-18T11:33:34.808Z,18.36
2022-09-18T11:34:34.803Z,18.26
2022-09-18T11:35:34.786Z,18.39
2022-09-18T11:36:34.798Z,18.41
2022-09-18T11:37:34.782Z,18.48
2022-09-18T11:38:34.780Z,18.42
2022-09-18T11:39:34.916Z,18.42
2022-09-18T11:40:34.915Z,18.45
2022-09-18T11:41:34.783Z,18.41
2022-09-18T11:42:34.768Z,18.50
2022-09-18T11:43:34.766Z,18.39
2022-09-18T11:44:34.773Z,18.51
2022-09-18T11:45:34.774Z,18.47
2022-09-18T11:46:34.808Z,18.48
2022-09-18T11:47:34.767Z,18.51
2022-09-18T11:48:34.763Z,18.48
2022-09-18T11:49:34.762Z,18.48
2022-09-18T11:50:34.751Z,18.52
2022-09-18T11:51:34.757Z,18.47
2022-09-18T11:52:34.748Z,18.54
2022-09-18T11:53:34.743Z,18.51
2022-09-18T11:54:34.745Z,18.51
2022-09-18T11:55:34.852Z,18.55
2022-09-18T11:56:34.747Z,18.47
2022-09-18T11:57:34.742Z,18.58
2022-09-18T11:58:34.742Z,18.50
2022-09-18T11:59:34.732Z,18.57
2022-09-18T12:00:34.726Z,18.60
2022-09-18T12:01:34.733Z,18.57
2022-09-18T12:02:34.888Z,18.60
2022-09-18T12:03:34.835Z,18.52
2022-09-18T12:04:34.715Z,18.55
2022-09-18T12:05:34.724Z,18.54
2022-09-18T12:06:34.725Z,18.51
2022-09-18T12:07:35.438Z,18.52
2022-09-18T12:08:33.378Z,18.55
2022-09-18T12:09:33.345Z,18.60
2022-09-18T12:10:33.347Z,18.55
2022-09-18T12:11:33.454Z,18.57
2022-09-18T12:12:33.349Z,18.52
2022-09-18T12:13:33.337Z,18.58
2022-09-18T12:14:33.330Z,18.57
2022-09-18T12:15:33.330Z,18.65
2022-09-18T12:16:33.357Z,18.54
2022-09-18T12:17:33.328Z,18.65
2022-09-18T12:18:33.320Z,18.60
2022-09-18T12:19:33.323Z,18.55
2022-09-18T12:20:33.313Z,18.51
2022-09-18T12:21:33.315Z,18.65
2022-09-18T12:22:33.306Z,18.58
2022-09-18T12:23:33.313Z,18.57
2022-09-18T12:24:33.301Z,18.54
2022-09-18T12:25:33.299Z,18.58
2022-09-18T12:26:33.297Z,18.54
2022-09-18T12:27:33.402Z,18.58
2022-09-18T12:28:33.296Z,18.55
2022-09-18T12:29:33.285Z,18.52
2022-09-18T12:30:33.275Z,18.51
2022-09-18T12:31:33.322Z,18.62
2022-09-18T12:32:33.278Z,18.54
2022-09-18T12:33:34.371Z,18.60
2022-09-18T12:34:33.268Z,18.58
2022-09-18T12:35:33.262Z,18.55
2022-09-18T12:36:33.255Z,18.51
2022-09-18T12:37:33.255Z,18.54
2022-09-18T12:38:33.250Z,18.66
2022-09-18T12:40:15.853Z,18.55
2022-09-18T12:41:19.212Z,18.57
2022-09-18T12:42:15.783Z,18.57
2022-09-18T12:43:15.901Z,18.63
2022-09-18T12:44:15.788Z,18.57
2022-09-18T12:45:15.769Z,18.63
2022-09-18T12:46:15.851Z,18.62
2022-09-18T12:47:15.765Z,18.58
2022-09-18T12:48:15.761Z,18.67
2022-09-18T12:49:15.764Z,18.65
2022-09-18T12:50:15.764Z,18.58
2022-09-18T12:51:15.768Z,18.62
2022-09-18T12:52:15.747Z,18.66
2022-09-18T12:53:15.744Z,18.66